createdAt,value
2023-04-01T00:01:25.877Z,96921.44
2023-04-01T00:03:52.750Z,96933.06
2023-04-01T00:06:20.048Z,96930.31
2023-04-01T00:08:47.283Z,96921.06
2023-04-01T00:11:14.890Z,96926.94
2023-04-01T00:13:42.359Z,96902.88
2023-04-01T00:16:17.915Z,96915.63
2023-04-01T00:18:48.589Z,96912.19
2023-04-01T00:21:16.287Z,96911.66
2023-04-01T00:23:43.189Z,96904.38
2023-04-01T00:26:10.272Z,96900.09
2023-04-01T00:28:38.334Z,96902.03
2023-04-01T00:31:07.208Z,96899.78
2023-04-01T00:33:34.030Z,96916.53
2023-04-01T00:36:12.860Z,96907.34
2023-04-01T00:38:40.085Z,96899.91
2023-04-01T00:41:07.114Z,96911.56
2023-04-01T00:43:34.381Z,96903.47
2023-04-01T00:46:01.496Z,96909.19
2023-04-01T00:48:36.075Z,96908.84
2023-04-01T00:51:12.668Z,96906.44
2023-04-01T00:53:44.024Z,96903.16
2023-04-01T00:56:15.459Z,96897.97
2023-04-01T00:58:47.372Z,96895.19
2023-04-01T01:01:14.246Z,96891.56
2023-04-01T01:03:41.511Z,96908.19
2023-04-01T01:06:40.111Z,96906.03
2023-04-01T01:09:29.047Z,96907.56
2023-04-01T01:12:06.016Z,96900.47
2023-04-01T01:14:53.837Z,96898.66
2023-04-01T01:17:26.841Z,96905.59
2023-04-01T01:20:25.914Z,96897.31
2023-04-01T01:23:18.444Z,96892.00
2023-04-01T01:25:56.716Z,96898.63
2023-04-01T01:28:51.499Z,96890.19
2023-04-01T01:31:35.361Z,96896.59
2023-04-01T01:34:24.572Z,96891.56
2023-04-01T01:36:57.390Z,96892.28
2023-04-01T01:39:30.083Z,96893.13
2023-04-01T01:42:01.437Z,96898.69
2023-04-01T01:44:31.656Z,96901.75
2023-04-01T01:46:58.877Z,96896.50
2023-04-01T01:49:27.111Z,96897.50
2023-04-01T01:51:57.463Z,96904.75
2023-04-01T01:54:24.283Z,96909.13
2023-04-01T01:56:56.972Z,96899.63
2023-04-01T01:59:29.326Z,96903.97
2023-04-01T02:01:57.960Z,96895.47
2023-04-01T02:04:26.435Z,96907.22
2023-04-01T02:07:04.401Z,96886.63
2023-04-01T02:09:31.367Z,96897.03
2023-04-01T02:12:02.138Z,96902.09
2023-04-01T02:14:47.203Z,96901.03
2023-04-01T02:17:18.880Z,96891.56
2023-04-01T02:19:56.942Z,96892.53
2023-04-01T02:22:28.872Z,96906.16
2023-04-01T02:25:00.306Z,96894.75
2023-04-01T02:27:27.051Z,96885.81
2023-04-01T02:29:56.492Z,96886.25
2023-04-01T02:32:23.328Z,96888.50
2023-04-01T02:34:50.666Z,96895.91
2023-04-01T02:37:17.989Z,96890.31
2023-04-01T02:39:44.754Z,96879.94
2023-04-01T02:42:11.687Z,96885.31
2023-04-01T02:44:38.357Z,96881.53
2023-04-01T02:47:05.090Z,96886.31
2023-04-01T02:49:31.868Z,96880.59
2023-04-01T02:51:58.568Z,96875.34
2023-04-01T02:54:25.349Z,96868.66
2023-04-01T02:56:52.156Z,96866.00
2023-04-01T02:59:18.895Z,96864.53
2023-04-01T03:01:45.614Z,96876.06
2023-04-01T03:04:12.243Z,96863.13
2023-04-01T03:06:38.891Z,96862.09
2023-04-01T03:09:05.647Z,96854.13
2023-04-01T03:11:32.279Z,96854.13
2023-04-01T03:13:58.968Z,96867.03
2023-04-01T03:16:25.862Z,96852.13
2023-04-01T03:18:53.579Z,96871.31
2023-04-01T03:21:24.850Z,96869.00
2023-04-01T03:23:51.497Z,96849.75
2023-04-01T03:26:19.187Z,96866.34
2023-04-01T03:28:45.858Z,96871.75
2023-04-01T03:31:13.530Z,96863.56
2023-04-01T03:33:46.983Z,96879.81
2023-04-01T03:36:14.045Z,96871.56
2023-04-01T03:38:41.981Z,96874.81
2023-04-01T03:41:08.708Z,96886.38
2023-04-01T03:43:35.453Z,96870.13
2023-04-01T03:46:02.549Z,96877.09
2023-04-01T03:48:29.995Z,96871.31
2023-04-01T03:50:56.651Z,96875.94
2023-04-01T03:53:23.853Z,96867.78
2023-04-01T03:55:52.337Z,96880.41
2023-04-01T03:58:19.081Z,96879.31
2023-04-01T04:00:46.204Z,96866.44
2023-04-01T04:03:13.079Z,96863.94
2023-04-01T04:05:50.442Z,96865.16
2023-04-01T04:08:18.747Z,96868.56
2023-04-01T04:10:45.795Z,96853.09
2023-04-01T04:13:12.429Z,96863.31
2023-04-01T04:15:45.403Z,96862.03
2023-04-01T04:18:12.133Z,96855.16
2023-04-01T04:20:46.487Z,96838.09
2023-04-01T04:23:13.217Z,96861.16
2023-04-01T04:25:41.210Z,96865.94
2023-04-01T04:28:08.027Z,96847.44
2023-04-01T04:30:35.292Z,96862.63
2023-04-01T04:33:02.775Z,96841.31
2023-04-01T04:35:29.480Z,96856.94
2023-04-01T04:37:56.192Z,96846.53
2023-04-01T04:40:23.188Z,96858.22
2023-04-01T04:42:49.970Z,96856.56
2023-04-01T04:45:16.869Z,96852.91
2023-04-01T04:47:52.575Z,96858.16
2023-04-01T04:50:19.273Z,96857.78
2023-04-01T04:52:46.006Z,96856.00
2023-04-01T04:55:13.006Z,96838.75
2023-04-01T04:57:42.524Z,96848.09
2023-04-01T05:00:11.032Z,96846.34
2023-04-01T05:02:52.842Z,96840.88
2023-04-01T05:05:19.681Z,96851.97
2023-04-01T05:07:46.728Z,96840.09
2023-04-01T05:10:13.498Z,96828.38
2023-04-01T05:12:40.336Z,96837.06
2023-04-01T05:15:09.714Z,96838.66
2023-04-01T05:17:36.707Z,96851.38
2023-04-01T05:20:05.074Z,96832.53
2023-04-01T05:22:31.827Z,96839.66
2023-04-01T05:24:58.528Z,96834.81
2023-04-01T05:27:25.735Z,96848.59
2023-04-01T05:29:53.202Z,96837.50
2023-04-01T05:32:46.330Z,96841.13
2023-04-01T05:35:13.050Z,96838.66
2023-04-01T05:37:39.850Z,96840.38
2023-04-01T05:40:07.215Z,96848.03
2023-04-01T05:42:36.790Z,96835.44
2023-04-01T05:45:05.207Z,96844.63
2023-04-01T05:48:09.694Z,96849.50
2023-04-01T05:50:41.641Z,96849.63
2023-04-01T05:53:09.488Z,96863.63
2023-04-01T05:55:37.535Z,96853.56
2023-04-01T05:58:05.055Z,96844.81
2023-04-01T06:00:32.240Z,96849.91
2023-04-01T06:03:00.919Z,96861.59
2023-04-01T06:05:39.180Z,96861.28
2023-04-01T06:08:20.099Z,96862.16
2023-04-01T06:10:56.840Z,96846.22
2023-04-01T06:13:41.814Z,96837.63
2023-04-01T06:16:36.666Z,96845.59
2023-04-01T06:19:09.353Z,96840.22
2023-04-01T06:21:42.737Z,96840.94
2023-04-01T06:24:22.182Z,96839.91
2023-04-01T06:27:10.881Z,96838.06
2023-04-01T06:30:02.045Z,96849.94
2023-04-01T06:32:41.192Z,96857.72
2023-04-01T06:35:29.782Z,96838.75
2023-04-01T06:38:02.432Z,96838.84
2023-04-01T06:40:58.874Z,96854.69
2023-04-01T06:43:44.361Z,96849.63
2023-04-01T06:46:46.554Z,96857.97
2023-04-01T06:50:22.312Z,96855.81
2023-04-01T06:53:48.228Z,96863.72
2023-04-01T06:56:35.170Z,96856.88
2023-04-01T06:59:26.012Z,96869.97
2023-04-01T07:02:06.787Z,96869.97
2023-04-01T07:04:40.137Z,96862.94
2023-04-01T07:07:31.995Z,96856.22
2023-04-01T07:10:10.617Z,96857.28
2023-04-01T07:13:03.058Z,96867.94
2023-04-01T07:15:59.073Z,96872.63
2023-04-01T07:18:42.582Z,96870.47
2023-04-01T07:21:58.881Z,96875.31
2023-04-01T07:24:40.467Z,96865.41
2023-04-01T07:27:14.013Z,96880.97
2023-04-01T07:29:42.387Z,96875.88
2023-04-01T07:32:36.140Z,96871.41
2023-04-01T07:35:08.197Z,96874.19
2023-04-01T07:38:00.466Z,96877.88
2023-04-01T07:40:38.714Z,96885.22
2023-04-01T07:43:25.135Z,96889.41
2023-04-01T07:46:13.217Z,96888.94
2023-04-01T07:48:42.249Z,96894.44
2023-04-01T07:51:21.394Z,96895.75
2023-04-01T07:54:14.065Z,96885.31
2023-04-01T07:56:49.196Z,96894.44
2023-04-01T07:59:40.831Z,96900.69
2023-04-01T08:02:50.344Z,96901.44
2023-04-01T08:05:27.169Z,96910.91
2023-04-01T08:08:30.763Z,96919.56
2023-04-01T08:11:34.305Z,96915.47
2023-04-01T08:14:57.013Z,96921.94
2023-04-01T08:17:59.766Z,96928.06
2023-04-01T08:20:40.372Z,96924.25
2023-04-01T08:23:14.837Z,96927.59
2023-04-01T08:26:12.223Z,96932.63
2023-04-01T08:28:50.137Z,96935.69
2023-04-01T08:31:27.728Z,96932.44
2023-04-01T08:33:55.624Z,96944.88
2023-04-01T08:36:32.320Z,96941.31
2023-04-01T08:39:31.186Z,96933.78
2023-04-01T08:42:24.887Z,96940.75
2023-04-01T08:45:23.992Z,96944.31
2023-04-01T08:48:26.301Z,96942.50
2023-04-01T08:51:09.165Z,96959.69
2023-04-01T08:54:02.522Z,96942.94
2023-04-01T08:57:15.276Z,96956.63
2023-04-01T09:00:25.354Z,96957.59
2023-04-01T09:03:15.972Z,96957.16
2023-04-01T09:06:03.507Z,96958.59
2023-04-01T09:09:09.778Z,96955.97
2023-04-01T09:12:11.309Z,96963.78
2023-04-01T09:14:47.503Z,96973.06
2023-04-01T09:17:35.816Z,96967.16
2023-04-01T09:20:38.111Z,96962.78
2023-04-01T09:23:49.620Z,96966.09
2023-04-01T09:26:19.239Z,96976.13
2023-04-01T09:29:12.198Z,96973.69
2023-04-01T09:31:57.230Z,96977.19
2023-04-01T09:35:19.269Z,96969.19
2023-04-01T09:37:53.437Z,96974.75
2023-04-01T09:40:42.701Z,96971.03
2023-04-01T09:43:43.296Z,96978.81
2023-04-01T09:46:18.753Z,96979.97
2023-04-01T09:49:19.900Z,96978.50
2023-04-01T09:52:08.370Z,96984.91
2023-04-01T09:54:47.284Z,96983.72
2023-04-01T09:57:35.880Z,96986.75
2023-04-01T10:00:35.791Z,96998.06
2023-04-01T10:04:00.452Z,96999.63
2023-04-01T10:07:05.574Z,96999.44
2023-04-01T10:09:58.303Z,96996.25
2023-04-01T10:12:38.020Z,97008.50
2023-04-01T10:15:36.455Z,97018.34
2023-04-01T10:18:20.435Z,97005.25
2023-04-01T10:20:56.494Z,97005.19
2023-04-01T10:24:12.502Z,97013.97
2023-04-01T10:27:00.947Z,97013.06
2023-04-01T10:30:15.629Z,97013.91
2023-04-01T10:33:08.152Z,97010.19
2023-04-01T10:36:16.764Z,97011.28
2023-04-01T10:38:59.759Z,97011.75
2023-04-01T10:41:32.647Z,96999.66
2023-04-01T10:44:46.291Z,97009.53
2023-04-01T10:47:22.988Z,97019.06
2023-04-01T10:50:09.144Z,97006.16
2023-04-01T10:52:51.665Z,97013.25
2023-04-01T10:56:04.400Z,97006.28
2023-04-01T10:59:28.426Z,97005.50
2023-04-01T11:02:32.219Z,97012.84
2023-04-01T11:05:56.351Z,97015.84
2023-04-01T11:08:32.231Z,97011.16
2023-04-01T11:11:18.382Z,97006.34
2023-04-01T11:13:48.422Z,97016.03
2023-04-01T11:16:40.101Z,97019.94
2023-04-01T11:19:42.382Z,97020.47
2023-04-01T11:22:17.222Z,97026.03
2023-04-01T11:25:26.389Z,97013.25
2023-04-01T11:28:38.594Z,97016.88
2023-04-01T11:31:27.032Z,97022.56
2023-04-01T11:34:25.049Z,97029.84
2023-04-01T11:37:00.881Z,97041.69
2023-04-01T11:39:35.749Z,97030.56
2023-04-01T11:42:56.164Z,97057.91
2023-04-01T11:46:32.554Z,97054.63
2023-04-01T11:49:05.317Z,97045.06
2023-04-01T11:52:13.151Z,97038.41
2023-04-01T11:54:56.289Z,97053.16
2023-04-01T11:57:37.949Z,97051.84
2023-04-01T12:00:19.702Z,97056.16
2023-04-01T12:03:11.329Z,97054.69
2023-04-01T12:05:41.102Z,97066.81
2023-04-01T12:08:13.466Z,97064.34
2023-04-01T12:11:02.699Z,97071.91
2023-04-01T12:13:35.305Z,97066.28
2023-04-01T12:16:12.811Z,97069.59
2023-04-01T12:18:58.277Z,97078.44
2023-04-01T12:22:00.287Z,97084.03
2023-04-01T12:24:41.013Z,97077.75
2023-04-01T12:27:36.796Z,97081.19
2023-04-01T12:30:31.544Z,97083.75
2023-04-01T12:33:29.441Z,97092.38
2023-04-01T12:36:23.632Z,97087.63
2023-04-01T12:38:59.141Z,97086.19
2023-04-01T12:41:38.019Z,97087.84
2023-04-01T12:44:36.550Z,97083.50
2023-04-01T12:47:19.218Z,97076.88
2023-04-01T12:49:51.982Z,97100.53
2023-04-01T12:52:40.093Z,97088.97
2023-04-01T12:55:26.637Z,97102.50
2023-04-01T12:58:09.869Z,97099.75
2023-04-01T13:00:51.577Z,97106.16
2023-04-01T13:03:46.326Z,97097.03
2023-04-01T13:06:20.887Z,97101.47
2023-04-01T13:09:20.851Z,97108.72
2023-04-01T13:12:18.072Z,97119.44
2023-04-01T13:14:58.438Z,97120.28
2023-04-01T13:17:45.932Z,97110.63
2023-04-01T13:20:21.293Z,97113.22
2023-04-01T13:23:46.082Z,97116.59
2023-04-01T13:26:38.289Z,97124.38
2023-04-01T13:29:32.399Z,97109.56
2023-04-01T13:32:43.251Z,97135.59
2023-04-01T13:35:34.879Z,97125.69
2023-04-01T13:38:43.238Z,97129.97
2023-04-01T13:41:28.503Z,97123.16
2023-04-01T13:44:00.959Z,97125.59
2023-04-01T13:46:35.794Z,97142.53
2023-04-01T13:49:17.930Z,97138.50
2023-04-01T13:52:03.934Z,97134.81
2023-04-01T13:54:58.437Z,97134.72
2023-04-01T13:57:44.591Z,97143.56
2023-04-01T14:00:33.107Z,97148.09
2023-04-01T14:03:33.911Z,97147.38
2023-04-01T14:06:27.589Z,97152.25
2023-04-01T14:08:57.063Z,97162.94
2023-04-01T14:11:40.413Z,97161.41
2023-04-01T14:14:28.437Z,97160.19
2023-04-01T14:17:01.085Z,97159.97
2023-04-01T14:19:45.821Z,97157.78
2023-04-01T14:22:32.778Z,97162.16
2023-04-01T14:25:27.325Z,97168.22
2023-04-01T14:28:13.167Z,97171.59
2023-04-01T14:30:48.165Z,97173.66
2023-04-01T14:33:36.555Z,97175.81
2023-04-01T14:36:16.969Z,97178.59
2023-04-01T14:39:17.553Z,97188.03
2023-04-01T14:41:50.315Z,97183.09
2023-04-01T14:44:44.430Z,97178.69
2023-04-01T14:47:35.866Z,97184.50
2023-04-01T14:50:18.775Z,97188.13
2023-04-01T14:53:16.488Z,97189.66
2023-04-01T14:55:49.192Z,97181.78
2023-04-01T14:58:18.961Z,97176.84
2023-04-01T15:01:07.537Z,97191.63
2023-04-01T15:03:50.403Z,97194.81
2023-04-01T15:06:38.280Z,97196.91
2023-04-01T15:09:13.684Z,97195.19
2023-04-01T15:12:00.354Z,97196.13
2023-04-01T15:14:50.901Z,97191.03
2023-04-01T15:17:36.370Z,97196.81
2023-04-01T15:20:30.638Z,97201.72
2023-04-01T15:23:08.116Z,97205.84
2023-04-01T15:25:43.836Z,97197.53
2023-04-01T15:28:31.859Z,97204.91
2023-04-01T15:31:19.968Z,97205.84
2023-04-01T15:33:52.484Z,97220.03
2023-04-01T15:36:50.301Z,97222.59
2023-04-01T15:39:31.243Z,97218.44
2023-04-01T15:42:07.762Z,97219.41
2023-04-01T15:44:53.403Z,97225.25
2023-04-01T15:47:26.188Z,97225.63
2023-04-01T15:50:39.032Z,97228.84
2023-04-01T15:53:21.210Z,97232.84
2023-04-01T15:56:16.184Z,97238.16
2023-04-01T15:59:09.060Z,97235.75
2023-04-01T16:01:47.348Z,97235.47
2023-04-01T16:04:47.621Z,97235.81
2023-04-01T16:07:39.183Z,97235.81
2023-04-01T16:10:14.938Z,97243.97
2023-04-01T16:13:07.390Z,97238.59
2023-04-01T16:15:53.317Z,97245.34
2023-04-01T16:18:29.084Z,97237.00
2023-04-01T16:21:01.666Z,97238.34
2023-04-01T16:23:49.056Z,97242.34
2023-04-01T16:26:29.645Z,97235.09
2023-04-01T16:29:08.986Z,97239.22
2023-04-01T16:31:39.192Z,97237.13
2023-04-01T16:34:20.737Z,97236.09
2023-04-01T16:37:05.381Z,97238.63
2023-04-01T16:39:54.236Z,97233.88
2023-04-01T16:42:43.970Z,97245.13
2023-04-01T16:45:25.576Z,97253.66
2023-04-01T16:47:57.712Z,97250.84
2023-04-01T16:50:28.619Z,97248.56
2023-04-01T16:53:00.812Z,97258.22
2023-04-01T16:55:46.679Z,97257.25
2023-04-01T16:58:22.683Z,97254.91
2023-04-01T17:00:52.874Z,97259.69
2023-04-01T17:03:32.970Z,97260.31
2023-04-01T17:05:59.600Z,97252.34
2023-04-01T17:08:49.760Z,97265.97
2023-04-01T17:11:23.820Z,97268.63
2023-04-01T17:13:55.840Z,97269.00
2023-04-01T17:16:31.627Z,97271.91
2023-04-01T17:19:23.811Z,97275.16
2023-04-01T17:22:03.269Z,97275.72
2023-04-01T17:24:46.717Z,97277.28
2023-04-01T17:27:27.081Z,97278.06
2023-04-01T17:30:16.202Z,97277.88
2023-04-01T17:33:21.961Z,97286.78
2023-04-01T17:35:59.317Z,97278.66
2023-04-01T17:38:51.036Z,97286.88
2023-04-01T17:41:54.515Z,97290.88
2023-04-01T17:44:42.558Z,97290.09
2023-04-01T17:47:23.681Z,97292.72
2023-04-01T17:50:15.126Z,97295.47
2023-04-01T17:52:57.050Z,97298.28
2023-04-01T17:55:29.767Z,97298.25
2023-04-01T17:58:23.981Z,97308.06
2023-04-01T18:01:09.744Z,97298.13
2023-04-01T18:04:02.536Z,97305.72
2023-04-01T18:06:41.290Z,97307.00
2023-04-01T18:09:22.989Z,97308.53
2023-04-01T18:12:08.382Z,97311.00
2023-04-01T18:14:56.341Z,97318.03
2023-04-01T18:17:41.424Z,97324.41
2023-04-01T18:20:37.511Z,97323.59
2023-04-01T18:23:19.975Z,97328.84
2023-04-01T18:25:49.595Z,97332.25
2023-04-01T18:28:23.348Z,97335.94
2023-04-01T18:31:16.043Z,97338.53
2023-04-01T18:33:50.322Z,97346.16
2023-04-01T18:36:19.949Z,97338.63
2023-04-01T18:39:03.714Z,97343.13
2023-04-01T18:41:36.341Z,97352.69
2023-04-01T18:44:15.313Z,97356.94
2023-04-01T18:46:47.001Z,97360.50
2023-04-01T18:49:35.678Z,97357.44
2023-04-01T18:52:36.576Z,97361.44
2023-04-01T18:55:03.231Z,97367.22
2023-04-01T18:57:51.925Z,97381.44
2023-04-01T19:00:27.065Z,97384.34
2023-04-01T19:03:01.630Z,97381.38
2023-04-01T19:05:39.304Z,97384.00
2023-04-01T19:08:26.913Z,97390.91
2023-04-01T19:11:28.209Z,97391.28
2023-04-01T19:14:16.367Z,97392.56
2023-04-01T19:17:07.354Z,97398.28
2023-04-01T19:19:46.037Z,97402.69
2023-04-01T19:22:32.059Z,97405.69
2023-04-01T19:25:24.475Z,97400.06
2023-04-01T19:27:53.932Z,97403.28
2023-04-01T19:30:23.664Z,97412.41
2023-04-01T19:33:20.924Z,97413.63
2023-04-01T19:36:18.558Z,97416.41
2023-04-01T19:38:58.759Z,97405.88
2023-04-01T19:41:28.301Z,97417.63
2023-04-01T19:44:06.802Z,97417.75
2023-04-01T19:46:38.331Z,97418.94
2023-04-01T19:49:16.883Z,97420.59
2023-04-01T19:51:52.584Z,97431.50
2023-04-01T19:54:37.710Z,97430.00
2023-04-01T19:57:24.253Z,97427.69
2023-04-01T20:00:08.732Z,97427.34
2023-04-01T20:02:59.465Z,97433.38
2023-04-01T20:05:26.690Z,97435.84
2023-04-01T20:08:00.946Z,97435.53
2023-04-01T20:10:43.552Z,97446.22
2023-04-01T20:13:33.511Z,97445.63
2023-04-01T20:16:07.001Z,97454.16
2023-04-01T20:18:53.552Z,97457.78
2023-04-01T20:21:38.632Z,97460.66
2023-04-01T20:24:08.245Z,97459.34
2023-04-01T20:26:40.442Z,97463.22
2023-04-01T20:29:42.428Z,97477.78
2023-04-01T20:32:27.552Z,97464.72
2023-04-01T20:35:27.284Z,97478.75
2023-04-01T20:38:11.899Z,97486.72
2023-04-01T20:40:42.426Z,97491.88
2023-04-01T20:43:18.724Z,97489.84
2023-04-01T20:46:12.663Z,97486.81
2023-04-01T20:49:01.238Z,97488.69
2023-04-01T20:51:32.349Z,97493.66
2023-04-01T20:54:20.787Z,97487.00
2023-04-01T20:57:05.869Z,97496.16
2023-04-01T20:59:59.329Z,97495.09
2023-04-01T21:03:07.453Z,97497.25
2023-04-01T21:06:16.656Z,97502.72
2023-04-01T21:09:18.689Z,97501.88
2023-04-01T21:11:59.726Z,97500.72
2023-04-01T21:14:33.195Z,97499.81
2023-04-01T21:17:08.745Z,97497.31
2023-04-01T21:19:57.465Z,97500.72
2023-04-01T21:22:41.914Z,97503.09
2023-04-01T21:25:20.463Z,97502.72
2023-04-01T21:28:11.885Z,97510.91
2023-04-01T21:30:58.910Z,97506.75
2023-04-01T21:33:52.106Z,97508.69
2023-04-01T21:36:39.865Z,97510.09
2023-04-01T21:39:28.263Z,97515.53
2023-04-01T21:42:16.290Z,97520.31
2023-04-01T21:45:03.411Z,97523.13
2023-04-01T21:47:35.852Z,97524.13
2023-04-01T21:50:40.290Z,97521.75
2023-04-01T21:53:31.703Z,97522.84
2023-04-01T21:56:01.122Z,97528.47
2023-04-01T21:58:56.033Z,97533.03
2023-04-01T22:01:45.189Z,97532.81
2023-04-01T22:04:39.796Z,97534.16
2023-04-01T22:07:18.213Z,97538.13
2023-04-01T22:09:47.563Z,97539.00
2023-04-01T22:12:34.454Z,97537.97
2023-04-01T22:15:50.577Z,97537.16
2023-04-01T22:18:34.917Z,97544.22
2023-04-01T22:21:10.371Z,97548.69
2023-04-01T22:23:53.643Z,97545.28
2023-04-01T22:26:48.467Z,97545.25
2023-04-01T22:29:23.876Z,97542.94
2023-04-01T22:32:05.873Z,97545.47
2023-04-01T22:35:06.024Z,97555.63
2023-04-01T22:37:44.253Z,97553.84
2023-04-01T22:40:26.612Z,97554.16
2023-04-01T22:43:17.035Z,97557.34
2023-04-01T22:46:08.370Z,97555.00
2023-04-01T22:48:42.441Z,97556.25
2023-04-01T22:51:30.297Z,97557.25
2023-04-01T22:54:35.399Z,97556.63
2023-04-01T22:57:11.314Z,97557.31
2023-04-01T22:59:47.521Z,97565.50
2023-04-01T23:02:27.118Z,97567.44
2023-04-01T23:04:58.404Z,97575.13
2023-04-01T23:07:54.879Z,97566.19
2023-04-01T23:10:45.705Z,97572.44
2023-04-01T23:13:23.350Z,97566.25
2023-04-01T23:15:52.997Z,97571.13
2023-04-01T23:18:31.114Z,97568.44
2023-04-01T23:21:00.936Z,97577.50
2023-04-01T23:24:23.320Z,97576.06
2023-04-01T23:26:56.496Z,97580.63
2023-04-01T23:29:23.972Z,97579.28
2023-04-01T23:32:01.660Z,97574.06
2023-04-01T23:34:32.343Z,97574.88
2023-04-01T23:37:05.866Z,97590.25
2023-04-01T23:39:41.940Z,97586.97
2023-04-01T23:42:16.166Z,97587.56
2023-04-01T23:44:44.785Z,97591.94
2023-04-01T23:47:18.241Z,97593.72
2023-04-01T23:49:52.520Z,97601.50
2023-04-01T23:52:24.486Z,97599.03
2023-04-01T23:55:00.724Z,97599.97
2023-04-01T23:57:35.870Z,97605.66
